sensor_id;sensor_type;location;lat;lon;timestamp;temperature;humidity
15409;DHT22;7803;48.130;13.788;2023-10-08T00:00:39;22.10;71.80
15409;DHT22;7803;48.130;13.788;2023-10-08T00:03:48;22.10;71.60
15409;DHT22;7803;48.130;13.788;2023-10-08T00:06:51;22.10;71.80
15409;DHT22;7803;48.130;13.788;2023-10-08T00:09:53;22.10;72.30
15409;DHT22;7803;48.130;13.788;2023-10-08T00:12:56;22.20;73.10
15409;DHT22;7803;48.130;13.788;2023-10-08T00:15:57;22.20;73.30
15409;DHT22;7803;48.130;13.788;2023-10-08T00:19:01;22.20;74.20
15409;DHT22;7803;48.130;13.788;2023-10-08T00:22:09;22.20;74.00
15409;DHT22;7803;48.130;13.788;2023-10-08T00:25:14;22.20;74.50
15409;DHT22;7803;48.130;13.788;2023-10-08T00:28:17;22.20;75.90
15409;DHT22;7803;48.130;13.788;2023-10-08T00:31:19;22.20;75.60
15409;DHT22;7803;48.130;13.788;2023-10-08T00:34:26;22.20;76.10
15409;DHT22;7803;48.130;13.788;2023-10-08T00:37:28;22.30;73.50
15409;DHT22;7803;48.130;13.788;2023-10-08T00:40:36;22.20;73.30
15409;DHT22;7803;48.130;13.788;2023-10-08T00:43:39;22.20;73.30
15409;DHT22;7803;48.130;13.788;2023-10-08T00:46:41;22.20;72.50
15409;DHT22;7803;48.130;13.788;2023-10-08T00:49:51;22.20;72.80
15409;DHT22;7803;48.130;13.788;2023-10-08T00:53:13;22.20;73.30
15409;DHT22;7803;48.130;13.788;2023-10-08T00:56:21;22.20;73.10
15409;DHT22;7803;48.130;13.788;2023-10-08T00:59:26;22.20;73.30
15409;DHT22;7803;48.130;13.788;2023-10-08T01:02:33;22.20;73.70
15409;DHT22;7803;48.130;13.788;2023-10-08T01:05:48;22.20;73.00
15409;DHT22;7803;48.130;13.788;2023-10-08T01:08:50;22.20;73.70
15409;DHT22;7803;48.130;13.788;2023-10-08T01:12:11;22.20;73.80
15409;DHT22;7803;48.130;13.788;2023-10-08T01:15:16;22.20;73.40
15409;DHT22;7803;48.130;13.788;2023-10-08T01:18:23;22.20;73.80
15409;DHT22;7803;48.130;13.788;2023-10-08T01:21:33;22.20;73.50
15409;DHT22;7803;48.130;13.788;2023-10-08T01:24:41;22.20;73.70
15409;DHT22;7803;48.130;13.788;2023-10-08T01:27:44;22.20;73.70
15409;DHT22;7803;48.130;13.788;2023-10-08T01:30:47;22.20;73.80
15409;DHT22;7803;48.130;13.788;2023-10-08T01:33:53;22.20;73.60
15409;DHT22;7803;48.130;13.788;2023-10-08T01:36:57;22.20;73.80
15409;DHT22;7803;48.130;13.788;2023-10-08T01:40:06;22.10;73.70
15409;DHT22;7803;48.130;13.788;2023-10-08T01:43:10;22.10;73.40
15409;DHT22;7803;48.130;13.788;2023-10-08T01:46:14;22.20;73.30
15409;DHT22;7803;48.130;13.788;2023-10-08T01:49:17;22.10;73.30
15409;DHT22;7803;48.130;13.788;2023-10-08T01:52:22;22.20;73.30
15409;DHT22;7803;48.130;13.788;2023-10-08T01:55:26;22.10;73.30
15409;DHT22;7803;48.130;13.788;2023-10-08T01:58:34;22.20;73.80
15409;DHT22;7803;48.130;13.788;2023-10-08T02:01:36;22.20;73.80
15409;DHT22;7803;48.130;13.788;2023-10-08T02:04:39;22.20;73.90
15409;DHT22;7803;48.130;13.788;2023-10-08T02:07:41;22.10;73.70
15409;DHT22;7803;48.130;13.788;2023-10-08T02:10:46;22.10;73.60
15409;DHT22;7803;48.130;13.788;2023-10-08T02:13:48;22.10;74.00
15409;DHT22;7803;48.130;13.788;2023-10-08T02:16:52;22.10;73.70
15409;DHT22;7803;48.130;13.788;2023-10-08T02:19:56;22.10;73.30
15409;DHT22;7803;48.130;13.788;2023-10-08T02:22:58;22.10;73.30
15409;DHT22;7803;48.130;13.788;2023-10-08T02:26:02;22.10;73.70
15409;DHT22;7803;48.130;13.788;2023-10-08T02:29:04;22.10;73.60
15409;DHT22;7803;48.130;13.788;2023-10-08T02:32:11;22.10;73.20
15409;DHT22;7803;48.130;13.788;2023-10-08T02:35:13;22.10;73.30
15409;DHT22;7803;48.130;13.788;2023-10-08T02:38:17;22.10;73.20
15409;DHT22;7803;48.130;13.788;2023-10-08T02:41:23;22.10;73.00
15409;DHT22;7803;48.130;13.788;2023-10-08T02:44:26;22.10;73.00
15409;DHT22;7803;48.130;13.788;2023-10-08T02:47:28;22.10;73.40
15409;DHT22;7803;48.130;13.788;2023-10-08T02:50:30;22.10;73.10
15409;DHT22;7803;48.130;13.788;2023-10-08T02:53:33;22.10;72.80
15409;DHT22;7803;48.130;13.788;2023-10-08T02:56:37;22.10;72.50
15409;DHT22;7803;48.130;13.788;2023-10-08T02:59:40;22.10;72.70
15409;DHT22;7803;48.130;13.788;2023-10-08T03:02:44;22.10;72.90
15409;DHT22;7803;48.130;13.788;2023-10-08T03:05:48;22.10;72.20
15409;DHT22;7803;48.130;13.788;2023-10-08T03:08:51;22.10;72.10
15409;DHT22;7803;48.130;13.788;2023-10-08T03:11:54;22.10;72.40
15409;DHT22;7803;48.130;13.788;2023-10-08T03:14:58;22.10;72.60
15409;DHT22;7803;48.130;13.788;2023-10-08T03:18:13;22.10;72.10
15409;DHT22;7803;48.130;13.788;2023-10-08T03:21:16;22.10;71.80
15409;DHT22;7803;48.130;13.788;2023-10-08T03:24:22;22.10;72.00
15409;DHT22;7803;48.130;13.788;2023-10-08T03:27:42;22.00;72.00
15409;DHT22;7803;48.130;13.788;2023-10-08T03:30:44;22.00;72.00
15409;DHT22;7803;48.130;13.788;2023-10-08T03:33:52;22.10;72.40
15409;DHT22;7803;48.130;13.788;2023-10-08T03:36:54;22.00;72.70
15409;DHT22;7803;48.130;13.788;2023-10-08T03:40:07;22.00;72.70
15409;DHT22;7803;48.130;13.788;2023-10-08T03:43:26;22.10;72.80
15409;DHT22;7803;48.130;13.788;2023-10-08T03:46:44;22.10;72.70
15409;DHT22;7803;48.130;13.788;2023-10-08T03:49:47;22.00;73.00
15409;DHT22;7803;48.130;13.788;2023-10-08T03:52:51;22.00;73.00
15409;DHT22;7803;48.130;13.788;2023-10-08T03:55:53;22.10;73.20
15409;DHT22;7803;48.130;13.788;2023-10-08T03:58:57;22.10;72.90
15409;DHT22;7803;48.130;13.788;2023-10-08T04:02:02;22.00;72.50
15409;DHT22;7803;48.130;13.788;2023-10-08T04:05:14;22.00;72.50
15409;DHT22;7803;48.130;13.788;2023-10-08T04:08:20;22.00;72.30
15409;DHT22;7803;48.130;13.788;2023-10-08T04:11:25;22.00;72.70
15409;DHT22;7803;48.130;13.788;2023-10-08T04:14:32;22.00;72.70
15409;DHT22;7803;48.130;13.788;2023-10-08T04:17:35;22.00;72.50
15409;DHT22;7803;48.130;13.788;2023-10-08T04:20:44;22.00;72.50
15409;DHT22;7803;48.130;13.788;2023-10-08T04:24:01;22.00;73.00
15409;DHT22;7803;48.130;13.788;2023-10-08T04:27:08;22.00;73.20
15409;DHT22;7803;48.130;13.788;2023-10-08T04:30:13;22.00;73.20
15409;DHT22;7803;48.130;13.788;2023-10-08T04:33:15;22.00;72.90
15409;DHT22;7803;48.130;13.788;2023-10-08T04:36:19;22.00;73.30
15409;DHT22;7803;48.130;13.788;2023-10-08T04:39:21;22.00;73.30
15409;DHT22;7803;48.130;13.788;2023-10-08T04:42:32;22.00;73.30
15409;DHT22;7803;48.130;13.788;2023-10-08T04:45:35;22.00;73.40
15409;DHT22;7803;48.130;13.788;2023-10-08T04:48:38;22.00;73.50
15409;DHT22;7803;48.130;13.788;2023-10-08T04:51:44;22.00;73.50
15409;DHT22;7803;48.130;13.788;2023-10-08T04:54:47;22.00;73.70
15409;DHT22;7803;48.130;13.788;2023-10-08T04:57:54;22.00;73.40
15409;DHT22;7803;48.130;13.788;2023-10-08T05:00:58;22.00;73.30
15409;DHT22;7803;48.130;13.788;2023-10-08T05:04:00;22.00;73.00
15409;DHT22;7803;48.130;13.788;2023-10-08T05:07:27;22.00;72.70
15409;DHT22;7803;48.130;13.788;2023-10-08T05:11:01;22.00;72.70
15409;DHT22;7803;48.130;13.788;2023-10-08T05:14:15;21.90;72.40
15409;DHT22;7803;48.130;13.788;2023-10-08T05:17:30;21.90;73.20
15409;DHT22;7803;48.130;13.788;2023-10-08T05:20:44;21.90;72.70
15409;DHT22;7803;48.130;13.788;2023-10-08T05:23:59;21.90;72.50
15409;DHT22;7803;48.130;13.788;2023-10-08T05:27:09;21.90;72.70
15409;DHT22;7803;48.130;13.788;2023-10-08T05:30:38;21.90;72.80
15409;DHT22;7803;48.130;13.788;2023-10-08T05:33:43;21.90;72.90
15409;DHT22;7803;48.130;13.788;2023-10-08T05:37:00;21.90;72.90
15409;DHT22;7803;48.130;13.788;2023-10-08T05:40:22;21.90;72.80
15409;DHT22;7803;48.130;13.788;2023-10-08T05:43:44;21.90;73.20
15409;DHT22;7803;48.130;13.788;2023-10-08T05:47:15;21.90;73.80
15409;DHT22;7803;48.130;13.788;2023-10-08T05:50:40;21.80;74.00
15409;DHT22;7803;48.130;13.788;2023-10-08T05:53:55;21.90;74.20
15409;DHT22;7803;48.130;13.788;2023-10-08T05:56:59;21.90;74.50
15409;DHT22;7803;48.130;13.788;2023-10-08T06:00:08;21.90;74.50
15409;DHT22;7803;48.130;13.788;2023-10-08T06:03:43;21.90;75.00
15409;DHT22;7803;48.130;13.788;2023-10-08T06:07:02;21.90;75.50
15409;DHT22;7803;48.130;13.788;2023-10-08T06:10:13;21.90;75.70
15409;DHT22;7803;48.130;13.788;2023-10-08T06:13:34;21.90;75.90
15409;DHT22;7803;48.130;13.788;2023-10-08T06:16:46;21.90;76.10
15409;DHT22;7803;48.130;13.788;2023-10-08T06:20:03;21.90;76.50
15409;DHT22;7803;48.130;13.788;2023-10-08T06:23:12;21.90;76.80
15409;DHT22;7803;48.130;13.788;2023-10-08T06:26:18;21.90;77.20
15409;DHT22;7803;48.130;13.788;2023-10-08T06:29:21;21.90;77.20
15409;DHT22;7803;48.130;13.788;2023-10-08T06:32:29;21.90;77.40
15409;DHT22;7803;48.130;13.788;2023-10-08T06:35:31;21.90;77.60
15409;DHT22;7803;48.130;13.788;2023-10-08T06:38:39;21.90;77.80
15409;DHT22;7803;48.130;13.788;2023-10-08T06:41:41;21.90;78.10
15409;DHT22;7803;48.130;13.788;2023-10-08T06:44:43;21.80;78.20
15409;DHT22;7803;48.130;13.788;2023-10-08T06:47:46;21.90;78.50
15409;DHT22;7803;48.130;13.788;2023-10-08T06:50:50;21.90;78.60
15409;DHT22;7803;48.130;13.788;2023-10-08T06:53:53;21.90;79.00
15409;DHT22;7803;48.130;13.788;2023-10-08T06:56:57;21.90;79.30
15409;DHT22;7803;48.130;13.788;2023-10-08T07:00:00;21.80;79.10
15409;DHT22;7803;48.130;13.788;2023-10-08T07:03:05;21.80;78.90
15409;DHT22;7803;48.130;13.788;2023-10-08T07:06:08;21.80;79.00
15409;DHT22;7803;48.130;13.788;2023-10-08T07:09:27;21.80;79.10
15409;DHT22;7803;48.130;13.788;2023-10-08T07:12:30;21.90;79.40
15409;DHT22;7803;48.130;13.788;2023-10-08T07:15:36;21.80;79.60
15409;DHT22;7803;48.130;13.788;2023-10-08T07:18:40;21.80;79.60
15409;DHT22;7803;48.130;13.788;2023-10-08T07:21:49;21.80;79.70
15409;DHT22;7803;48.130;13.788;2023-10-08T07:24:56;21.80;79.80
15409;DHT22;7803;48.130;13.788;2023-10-08T07:27:58;21.90;79.90
15409;DHT22;7803;48.130;13.788;2023-10-08T07:31:00;21.80;79.70
15409;DHT22;7803;48.130;13.788;2023-10-08T07:34:03;21.90;79.80
15409;DHT22;7803;48.130;13.788;2023-10-08T07:37:18;21.80;80.00
15409;DHT22;7803;48.130;13.788;2023-10-08T07:40:22;21.90;80.10
15409;DHT22;7803;48.130;13.788;2023-10-08T07:43:30;21.80;80.20
15409;DHT22;7803;48.130;13.788;2023-10-08T07:46:33;21.80;80.60
15409;DHT22;7803;48.130;13.788;2023-10-08T07:49:35;21.80;81.00
15409;DHT22;7803;48.130;13.788;2023-10-08T07:52:37;21.80;81.40
15409;DHT22;7803;48.130;13.788;2023-10-08T07:55:45;21.80;81.80
15409;DHT22;7803;48.130;13.788;2023-10-08T07:58:48;21.80;82.00
15409;DHT22;7803;48.130;13.788;2023-10-08T08:01:50;21.80;82.10
15409;DHT22;7803;48.130;13.788;2023-10-08T08:04:55;21.80;82.20
15409;DHT22;7803;48.130;13.788;2023-10-08T08:07:58;21.80;82.30
15409;DHT22;7803;48.130;13.788;2023-10-08T08:11:08;21.80;82.30
15409;DHT22;7803;48.130;13.788;2023-10-08T08:14:12;21.80;82.40
15409;DHT22;7803;48.130;13.788;2023-10-08T08:17:17;21.80;82.50
15409;DHT22;7803;48.130;13.788;2023-10-08T08:20:19;21.80;82.30
15409;DHT22;7803;48.130;13.788;2023-10-08T08:23:31;21.80;82.30
15409;DHT22;7803;48.130;13.788;2023-10-08T08:26:34;21.80;82.50
15409;DHT22;7803;48.130;13.788;2023-10-08T08:29:45;21.80;82.80
15409;DHT22;7803;48.130;13.788;2023-10-08T08:32:48;21.80;83.10
15409;DHT22;7803;48.130;13.788;2023-10-08T08:35:58;21.80;83.50
15409;DHT22;7803;48.130;13.788;2023-10-08T08:39:01;21.80;83.70
15409;DHT22;7803;48.130;13.788;2023-10-08T08:42:07;21.80;83.80
15409;DHT22;7803;48.130;13.788;2023-10-08T08:45:12;21.80;84.00
15409;DHT22;7803;48.130;13.788;2023-10-08T08:48:15;21.80;84.10
15409;DHT22;7803;48.130;13.788;2023-10-08T08:51:19;21.80;84.20
15409;DHT22;7803;48.130;13.788;2023-10-08T08:54:23;21.80;84.20
15409;DHT22;7803;48.130;13.788;2023-10-08T08:57:26;21.80;84.10
15409;DHT22;7803;48.130;13.788;2023-10-08T09:00:30;21.80;84.00
15409;DHT22;7803;48.130;13.788;2023-10-08T09:03:32;21.80;84.00
15409;DHT22;7803;48.130;13.788;2023-10-08T09:06:35;21.80;83.90
15409;DHT22;7803;48.130;13.788;2023-10-08T09:09:38;21.80;83.70
15409;DHT22;7803;48.130;13.788;2023-10-08T09:12:44;21.80;83.60
15409;DHT22;7803;48.130;13.788;2023-10-08T09:15:47;21.80;83.30
15409;DHT22;7803;48.130;13.788;2023-10-08T09:18:49;21.80;83.20
15409;DHT22;7803;48.130;13.788;2023-10-08T09:22:00;21.80;83.10
15409;DHT22;7803;48.130;13.788;2023-10-08T09:25:04;21.80;83.00
15409;DHT22;7803;48.130;13.788;2023-10-08T09:28:09;21.80;83.20
15409;DHT22;7803;48.130;13.788;2023-10-08T09:31:14;21.80;83.10
15409;DHT22;7803;48.130;13.788;2023-10-08T09:34:19;21.80;83.20
15409;DHT22;7803;48.130;13.788;2023-10-08T09:37:21;21.80;83.30
15409;DHT22;7803;48.130;13.788;2023-10-08T09:40:24;21.70;83.50
15409;DHT22;7803;48.130;13.788;2023-10-08T09:43:28;21.80;84.50
15409;DHT22;7803;48.130;13.788;2023-10-08T09:46:31;21.70;85.30
15409;DHT22;7803;48.130;13.788;2023-10-08T09:49:39;21.80;86.00
15409;DHT22;7803;48.130;13.788;2023-10-08T09:52:49;21.70;86.30
15409;DHT22;7803;48.130;13.788;2023-10-08T09:55:54;21.70;86.50
15409;DHT22;7803;48.130;13.788;2023-10-08T09:58:58;21.70;87.00
15409;DHT22;7803;48.130;13.788;2023-10-08T10:02:01;21.70;87.50
15409;DHT22;7803;48.130;13.788;2023-10-08T10:05:04;21.70;87.70
15409;DHT22;7803;48.130;13.788;2023-10-08T10:08:08;21.70;87.70
15409;DHT22;7803;48.130;13.788;2023-10-08T10:11:11;21.80;87.70
15409;DHT22;7803;48.130;13.788;2023-10-08T10:14:14;21.80;87.70
15409;DHT22;7803;48.130;13.788;2023-10-08T10:17:20;21.80;87.60
15409;DHT22;7803;48.130;13.788;2023-10-08T10:20:23;21.70;87.40
15409;DHT22;7803;48.130;13.788;2023-10-08T10:23:35;21.80;87.20
15409;DHT22;7803;48.130;13.788;2023-10-08T10:26:37;21.70;87.10
15409;DHT22;7803;48.130;13.788;2023-10-08T10:29:42;21.70;86.90
15409;DHT22;7803;48.130;13.788;2023-10-08T10:32:45;21.70;86.80
15409;DHT22;7803;48.130;13.788;2023-10-08T10:35:53;21.70;86.70
15409;DHT22;7803;48.130;13.788;2023-10-08T10:38:56;21.70;86.60
15409;DHT22;7803;48.130;13.788;2023-10-08T10:41:59;21.70;87.20
15409;DHT22;7803;48.130;13.788;2023-10-08T10:45:06;21.70;87.10
15409;DHT22;7803;48.130;13.788;2023-10-08T10:48:10;21.70;86.10
15409;DHT22;7803;48.130;13.788;2023-10-08T10:51:22;21.70;86.10
15409;DHT22;7803;48.130;13.788;2023-10-08T10:54:24;21.70;86.90
15409;DHT22;7803;48.130;13.788;2023-10-08T10:57:26;21.80;86.10
15409;DHT22;7803;48.130;13.788;2023-10-08T11:00:37;21.70;86.00
15409;DHT22;7803;48.130;13.788;2023-10-08T11:03:58;21.70;86.10
15409;DHT22;7803;48.130;13.788;2023-10-08T11:07:00;21.70;86.20
15409;DHT22;7803;48.130;13.788;2023-10-08T11:10:05;21.70;86.30
15409;DHT22;7803;48.130;13.788;2023-10-08T11:13:11;21.70;86.70
15409;DHT22;7803;48.130;13.788;2023-10-08T11:16:17;21.70;86.90
15409;DHT22;7803;48.130;13.788;2023-10-08T11:19:22;21.70;87.00
15409;DHT22;7803;48.130;13.788;2023-10-08T11:22:40;21.70;87.00
15409;DHT22;7803;48.130;13.788;2023-10-08T11:25:55;21.70;87.10
15409;DHT22;7803;48.130;13.788;2023-10-08T11:29:01;21.70;87.20
15409;DHT22;7803;48.130;13.788;2023-10-08T11:32:05;21.70;87.20
15409;DHT22;7803;48.130;13.788;2023-10-08T11:35:14;21.70;87.10
15409;DHT22;7803;48.130;13.788;2023-10-08T11:38:17;21.70;87.20
15409;DHT22;7803;48.130;13.788;2023-10-08T11:41:22;21.70;87.20
15409;DHT22;7803;48.130;13.788;2023-10-08T11:44:28;21.70;87.40
15409;DHT22;7803;48.130;13.788;2023-10-08T11:47:32;21.70;87.60
15409;DHT22;7803;48.130;13.788;2023-10-08T11:50:36;21.60;87.60
15409;DHT22;7803;48.130;13.788;2023-10-08T11:53:38;21.70;87.60
15409;DHT22;7803;48.130;13.788;2023-10-08T11:56:41;21.70;87.80
15409;DHT22;7803;48.130;13.788;2023-10-08T11:59:43;21.70;87.90
15409;DHT22;7803;48.130;13.788;2023-10-08T12:02:49;21.70;88.00
15409;DHT22;7803;48.130;13.788;2023-10-08T12:05:51;21.70;88.10
15409;DHT22;7803;48.130;13.788;2023-10-08T12:08:59;21.70;88.30
15409;DHT22;7803;48.130;13.788;2023-10-08T12:12:11;21.70;88.40
15409;DHT22;7803;48.130;13.788;2023-10-08T12:15:14;21.70;88.40
15409;DHT22;7803;48.130;13.788;2023-10-08T12:18:21;21.70;88.40
15409;DHT22;7803;48.130;13.788;2023-10-08T12:21:26;21.70;88.30
15409;DHT22;7803;48.130;13.788;2023-10-08T12:24:30;21.70;88.50
15409;DHT22;7803;48.130;13.788;2023-10-08T12:27:32;21.70;88.50
15409;DHT22;7803;48.130;13.788;2023-10-08T12:30:34;21.70;88.60
15409;DHT22;7803;48.130;13.788;2023-10-08T12:33:43;21.70;88.60
15409;DHT22;7803;48.130;13.788;2023-10-08T12:36:45;21.70;88.80
15409;DHT22;7803;48.130;13.788;2023-10-08T12:39:48;21.70;88.80
15409;DHT22;7803;48.130;13.788;2023-10-08T12:43:00;21.70;88.90
15409;DHT22;7803;48.130;13.788;2023-10-08T12:46:05;21.70;88.90
15409;DHT22;7803;48.130;13.788;2023-10-08T12:49:12;21.70;89.10
15409;DHT22;7803;48.130;13.788;2023-10-08T12:52:14;21.70;89.30
15409;DHT22;7803;48.130;13.788;2023-10-08T12:55:16;21.70;89.30
15409;DHT22;7803;48.130;13.788;2023-10-08T12:58:19;21.70;89.10
15409;DHT22;7803;48.130;13.788;2023-10-08T13:01:25;21.70;89.20
15409;DHT22;7803;48.130;13.788;2023-10-08T13:04:32;21.70;89.10
15409;DHT22;7803;48.130;13.788;2023-10-08T13:07:42;21.70;89.10
15409;DHT22;7803;48.130;13.788;2023-10-08T13:10:47;21.70;89.00
15409;DHT22;7803;48.130;13.788;2023-10-08T13:13:51;21.70;89.00
15409;DHT22;7803;48.130;13.788;2023-10-08T13:16:55;21.70;89.10
15409;DHT22;7803;48.130;13.788;2023-10-08T13:20:00;21.70;89.20
15409;DHT22;7803;48.130;13.788;2023-10-08T13:23:04;21.70;89.30
15409;DHT22;7803;48.130;13.788;2023-10-08T13:26:08;21.60;89.30
15409;DHT22;7803;48.130;13.788;2023-10-08T13:29:18;21.70;89.60
15409;DHT22;7803;48.130;13.788;2023-10-08T13:32:22;21.70;89.80
15409;DHT22;7803;48.130;13.788;2023-10-08T13:35:27;21.60;90.00
15409;DHT22;7803;48.130;13.788;2023-10-08T13:38:31;21.60;90.00
15409;DHT22;7803;48.130;13.788;2023-10-08T13:41:35;21.70;90.10
15409;DHT22;7803;48.130;13.788;2023-10-08T13:44:40;21.60;90.10
15409;DHT22;7803;48.130;13.788;2023-10-08T13:47:46;21.70;90.20
15409;DHT22;7803;48.130;13.788;2023-10-08T13:50:51;21.70;90.20
15409;DHT22;7803;48.130;13.788;2023-10-08T13:53:55;21.70;90.50
15409;DHT22;7803;48.130;13.788;2023-10-08T13:57:02;21.70;90.80
15409;DHT22;7803;48.130;13.788;2023-10-08T14:00:07;21.70;91.20
15409;DHT22;7803;48.130;13.788;2023-10-08T14:03:17;21.70;91.70
15409;DHT22;7803;48.130;13.788;2023-10-08T14:06:24;21.70;91.90
15409;DHT22;7803;48.130;13.788;2023-10-08T14:09:30;21.70;91.90
15409;DHT22;7803;48.130;13.788;2023-10-08T14:12:38;21.70;91.90
15409;DHT22;7803;48.130;13.788;2023-10-08T14:15:41;21.70;92.00
15409;DHT22;7803;48.130;13.788;2023-10-08T14:18:47;21.70;92.20
15409;DHT22;7803;48.130;13.788;2023-10-08T14:21:57;21.70;92.20
15409;DHT22;7803;48.130;13.788;2023-10-08T14:25:06;21.70;92.30
15409;DHT22;7803;48.130;13.788;2023-10-08T14:28:13;21.70;92.40
15409;DHT22;7803;48.130;13.788;2023-10-08T14:31:26;21.70;92.50
15409;DHT22;7803;48.130;13.788;2023-10-08T14:34:30;21.70;92.60
15409;DHT22;7803;48.130;13.788;2023-10-08T14:37:48;21.70;92.80
15409;DHT22;7803;48.130;13.788;2023-10-08T14:41:09;21.70;94.60
15409;DHT22;7803;48.130;13.788;2023-10-08T14:44:30;21.80;99.90
15409;DHT22;7803;48.130;13.788;2023-10-08T14:47:36;21.90;99.90
15409;DHT22;7803;48.130;13.788;2023-10-08T14:50:52;21.90;98.70
15409;DHT22;7803;48.130;13.788;2023-10-08T14:54:14;21.90;97.10
15409;DHT22;7803;48.130;13.788;2023-10-08T14:57:18;21.90;96.60
15409;DHT22;7803;48.130;13.788;2023-10-08T15:00:22;21.90;96.20
15409;DHT22;7803;48.130;13.788;2023-10-08T15:03:28;21.90;96.00
15409;DHT22;7803;48.130;13.788;2023-10-08T15:06:32;21.90;96.00
15409;DHT22;7803;48.130;13.788;2023-10-08T15:09:38;21.90;96.00
15409;DHT22;7803;48.130;13.788;2023-10-08T15:12:43;21.90;95.90
15409;DHT22;7803;48.130;13.788;2023-10-08T15:15:48;21.90;96.20
15409;DHT22;7803;48.130;13.788;2023-10-08T15:18:52;21.90;95.60
15409;DHT22;7803;48.130;13.788;2023-10-08T15:21:58;21.90;95.90
15409;DHT22;7803;48.130;13.788;2023-10-08T15:25:04;21.90;95.30
15409;DHT22;7803;48.130;13.788;2023-10-08T15:28:08;21.90;95.20
15409;DHT22;7803;48.130;13.788;2023-10-08T15:31:12;21.90;94.90
15409;DHT22;7803;48.130;13.788;2023-10-08T15:34:16;21.90;94.80
15409;DHT22;7803;48.130;13.788;2023-10-08T15:37:21;21.90;94.70
15409;DHT22;7803;48.130;13.788;2023-10-08T15:40:26;21.90;94.60
15409;DHT22;7803;48.130;13.788;2023-10-08T15:43:30;21.90;94.40
15409;DHT22;7803;48.130;13.788;2023-10-08T15:46:34;21.90;94.30
15409;DHT22;7803;48.130;13.788;2023-10-08T15:49:38;21.90;94.20
15409;DHT22;7803;48.130;13.788;2023-10-08T15:52:41;21.90;94.20
15409;DHT22;7803;48.130;13.788;2023-10-08T15:55:47;22.00;94.10
15409;DHT22;7803;48.130;13.788;2023-10-08T15:58:52;21.90;94.00
15409;DHT22;7803;48.130;13.788;2023-10-08T16:01:56;21.90;94.00
15409;DHT22;7803;48.130;13.788;2023-10-08T16:05:00;21.90;93.90
15409;DHT22;7803;48.130;13.788;2023-10-08T16:08:05;21.90;93.80
15409;DHT22;7803;48.130;13.788;2023-10-08T16:11:12;22.00;93.80
15409;DHT22;7803;48.130;13.788;2023-10-08T16:14:16;21.90;93.80
15409;DHT22;7803;48.130;13.788;2023-10-08T16:17:20;21.90;93.70
15409;DHT22;7803;48.130;13.788;2023-10-08T16:20:25;21.90;93.70
15409;DHT22;7803;48.130;13.788;2023-10-08T16:23:29;21.90;93.70
15409;DHT22;7803;48.130;13.788;2023-10-08T16:26:36;21.90;93.70
15409;DHT22;7803;48.130;13.788;2023-10-08T16:29:40;21.90;93.70
15409;DHT22;7803;48.130;13.788;2023-10-08T16:32:45;21.90;93.70
15409;DHT22;7803;48.130;13.788;2023-10-08T16:35:49;21.90;93.70
15409;DHT22;7803;48.130;13.788;2023-10-08T16:38:53;21.90;93.70
15409;DHT22;7803;48.130;13.788;2023-10-08T16:41:59;21.90;93.70
15409;DHT22;7803;48.130;13.788;2023-10-08T16:45:06;21.90;93.80
15409;DHT22;7803;48.130;13.788;2023-10-08T16:48:11;21.90;93.80
15409;DHT22;7803;48.130;13.788;2023-10-08T16:51:16;21.90;93.80
15409;DHT22;7803;48.130;13.788;2023-10-08T16:54:19;22.00;93.80
15409;DHT22;7803;48.130;13.788;2023-10-08T16:57:24;21.90;93.80
15409;DHT22;7803;48.130;13.788;2023-10-08T17:00:27;21.90;93.80
15409;DHT22;7803;48.130;13.788;2023-10-08T17:03:31;21.90;93.90
15409;DHT22;7803;48.130;13.788;2023-10-08T17:06:34;21.90;93.90
15409;DHT22;7803;48.130;13.788;2023-10-08T17:09:37;21.90;94.00
15409;DHT22;7803;48.130;13.788;2023-10-08T17:12:41;21.90;94.00
15409;DHT22;7803;48.130;13.788;2023-10-08T17:15:44;21.90;94.00
15409;DHT22;7803;48.130;13.788;2023-10-08T17:18:47;21.90;94.00
15409;DHT22;7803;48.130;13.788;2023-10-08T17:21:51;21.90;94.10
15409;DHT22;7803;48.130;13.788;2023-10-08T17:24:54;21.90;94.10
15409;DHT22;7803;48.130;13.788;2023-10-08T17:28:01;21.90;94.20
15409;DHT22;7803;48.130;13.788;2023-10-08T17:31:06;21.90;94.20
15409;DHT22;7803;48.130;13.788;2023-10-08T17:34:12;21.90;94.20
15409;DHT22;7803;48.130;13.788;2023-10-08T17:37:17;21.90;94.20
15409;DHT22;7803;48.130;13.788;2023-10-08T17:40:22;21.90;94.30
15409;DHT22;7803;48.130;13.788;2023-10-08T17:43:28;21.90;94.30
15409;DHT22;7803;48.130;13.788;2023-10-08T17:46:31;21.90;94.40
15409;DHT22;7803;48.130;13.788;2023-10-08T17:49:37;21.90;94.40
15409;DHT22;7803;48.130;13.788;2023-10-08T17:52:41;21.90;94.80
15409;DHT22;7803;48.130;13.788;2023-10-08T17:55:47;22.00;94.50
15409;DHT22;7803;48.130;13.788;2023-10-08T17:58:53;21.90;94.50
15409;DHT22;7803;48.130;13.788;2023-10-08T18:01:56;21.90;94.50
15409;DHT22;7803;48.130;13.788;2023-10-08T18:05:01;21.90;94.50
15409;DHT22;7803;48.130;13.788;2023-10-08T18:08:06;21.90;94.50
15409;DHT22;7803;48.130;13.788;2023-10-08T18:11:12;21.90;94.60
15409;DHT22;7803;48.130;13.788;2023-10-08T18:14:18;22.00;94.60
15409;DHT22;7803;48.130;13.788;2023-10-08T18:17:24;21.90;94.60
15409;DHT22;7803;48.130;13.788;2023-10-08T18:20:28;21.90;94.60
15409;DHT22;7803;48.130;13.788;2023-10-08T18:23:36;21.90;94.60
15409;DHT22;7803;48.130;13.788;2023-10-08T18:26:43;21.90;94.70
15409;DHT22;7803;48.130;13.788;2023-10-08T18:29:51;21.90;94.70
15409;DHT22;7803;48.130;13.788;2023-10-08T18:32:55;21.90;94.70
15409;DHT22;7803;48.130;13.788;2023-10-08T18:36:03;21.90;94.70
15409;DHT22;7803;48.130;13.788;2023-10-08T18:39:07;21.90;94.80
15409;DHT22;7803;48.130;13.788;2023-10-08T18:42:17;21.90;94.80
15409;DHT22;7803;48.130;13.788;2023-10-08T18:45:24;21.90;94.90
15409;DHT22;7803;48.130;13.788;2023-10-08T18:48:29;22.00;94.90
15409;DHT22;7803;48.130;13.788;2023-10-08T18:51:33;21.90;94.90
15409;DHT22;7803;48.130;13.788;2023-10-08T18:54:37;21.90;95.00
15409;DHT22;7803;48.130;13.788;2023-10-08T18:57:44;21.90;95.00
15409;DHT22;7803;48.130;13.788;2023-10-08T19:00:54;21.90;95.00
15409;DHT22;7803;48.130;13.788;2023-10-08T19:04:00;21.90;95.00
15409;DHT22;7803;48.130;13.788;2023-10-08T19:07:07;21.90;95.00
15409;DHT22;7803;48.130;13.788;2023-10-08T19:10:13;21.90;95.00
15409;DHT22;7803;48.130;13.788;2023-10-08T19:13:18;21.90;95.00
15409;DHT22;7803;48.130;13.788;2023-10-08T19:16:26;21.90;95.00
15409;DHT22;7803;48.130;13.788;2023-10-08T19:19:30;21.90;95.10
15409;DHT22;7803;48.130;13.788;2023-10-08T19:22:35;21.90;95.20
15409;DHT22;7803;48.130;13.788;2023-10-08T19:25:39;22.00;95.30
15409;DHT22;7803;48.130;13.788;2023-10-08T19:28:44;21.90;95.30
15409;DHT22;7803;48.130;13.788;2023-10-08T19:31:52;21.90;95.40
15409;DHT22;7803;48.130;13.788;2023-10-08T19:34:56;21.90;95.50